Time;durP1;ratioP1;P1;durP2;ratioP2;P2;SDS_P1;SDS_P2;PMS_P1;PMS_P2;Temp;Humidity;BMP_temperature;BMP_pressure;BME280_temperature;BME280_humidity;BME280_pressure;Samples;Min_cycle;Max_cycle;Signal;HPM_P1;HPM_P2
2021/09/04 00:05:15;;;;;;;10.02;5.28;;;23.70;53.80;;;;;;20824994;28;20092;-49
2021/09/04 00:15:17;;;;;;;;;;;23.60;53.80;;;;;;20824497;28;20095;-49
2021/09/04 00:25:19;;;;;;;8.18;5.47;;;23.50;53.40;;;;;;20822716;28;19922;-49
2021/09/04 00:35:21;;;;;;;6.40;4.87;;;23.30;54.20;;;;;;20822577;28;20053;-49
2021/09/04 00:45:22;;;;;;;8.67;5.17;;;23.10;54.30;;;;;;20822054;28;20516;-49
2021/09/04 00:55:26;;;;;;;6.10;5.28;;;22.90;54.60;;;;;;20821657;28;20501;-50
2021/09/04 01:05:28;;;;;;;6.57;5.28;;;22.70;55.00;;;;;;20820953;28;20451;-49
2021/09/04 01:15:31;;;;;;;8.10;5.15;;;22.60;55.40;;;;;;20820401;28;20491;-49
2021/09/04 01:25:34;;;;;;;6.47;5.03;;;22.50;55.60;;;;;;20819496;28;20136;-50
2021/09/04 01:35:37;;;;;;;6.45;4.85;;;22.40;55.20;;;;;;20818830;28;20410;-50
2021/09/04 01:45:40;;;;;;;8.67;4.90;;;22.40;55.00;;;;;;20818190;28;20092;-49
2021/09/04 01:55:46;;;;;;;5.78;4.63;;;22.30;54.20;;;;;;20817659;28;20057;-49
2021/09/04 02:05:51;;;;;;;6.60;3.90;;;22.20;53.10;;;;;;20817318;28;20094;-50
2021/09/04 02:15:59;;;;;;;6.63;4.40;;;22.10;52.80;;;;;;20817246;28;20132;-49
2021/09/04 02:26:04;;;;;;;6.35;4.30;;;21.90;53.00;;;;;;20819583;28;20119;-52
2021/09/04 02:36:07;;;;;;;5.43;4.53;;;21.90;53.40;;;;;;20830558;28;20049;-49
2021/09/04 02:46:09;;;;;;;6.22;4.78;;;21.70;54.10;;;;;;20830346;28;20049;-52
2021/09/04 02:56:15;;;;;;;5.78;4.18;;;21.60;54.70;;;;;;20829673;28;20500;-56
2021/09/04 03:06:17;;;;;;;5.53;4.87;;;21.70;54.90;;;;;;20829062;28;20057;-48
2021/09/04 03:16:20;;;;;;;8.35;5.05;;;21.60;54.80;;;;;;20827647;28;20089;-48
2021/09/04 03:26:22;;;;;;;6.45;4.82;;;21.60;54.70;;;;;;20828864;28;20057;-48
2021/09/04 03:36:25;;;;;;;;;;;21.60;55.60;;;;;;20827584;28;20045;-50
2021/09/04 03:46:28;;;;;;;7.25;4.57;;;21.40;55.90;;;;;;20826320;28;20291;-49
2021/09/04 03:56:29;;;;;;;7.20;5.00;;;21.40;56.70;;;;;;20825878;28;20126;-49
2021/09/04 04:06:32;;;;;;;6.13;5.07;;;21.20;56.90;;;;;;20827015;28;20057;-49
2021/09/04 04:16:36;;;;;;;5.80;4.32;;;21.20;57.20;;;;;;20893956;28;20049;-50
2021/09/04 04:26:38;;;;;;;7.33;5.70;;;21.10;57.50;;;;;;20893821;28;20493;-50
2021/09/04 04:36:41;;;;;;;7.83;5.10;;;21.10;57.30;;;;;;20825995;28;20045;-49
2021/09/04 04:46:45;;;;;;;9.03;5.27;;;20.90;57.40;;;;;;20893024;28;20049;-51
2021/09/04 04:56:52;;;;;;;5.90;4.60;;;21.00;57.00;;;;;;20824617;28;20474;-50
2021/09/04 05:06:53;;;;;;;6.10;5.10;;;20.90;57.00;;;;;;20891390;28;20053;-50
2021/09/04 05:16:55;;;;;;;7.78;5.18;;;20.90;57.30;;;;;;20823078;28;20505;-50
2021/09/04 05:26:57;;;;;;;7.38;5.50;;;20.80;58.10;;;;;;20822886;28;20060;-51
2021/09/04 05:36:59;;;;;;;8.70;5.38;;;20.70;58.10;;;;;;20821530;28;20056;-51
2021/09/04 05:47:01;;;;;;;7.10;5.80;;;20.80;57.60;;;;;;20820483;28;20045;-50
2021/09/04 05:57:02;;;;;;;8.10;5.38;;;20.60;57.80;;;;;;20887853;28;20124;-50
2021/09/04 06:07:04;;;;;;;9.45;5.55;;;20.60;57.90;;;;;;20818677;28;20049;-49
2021/09/04 06:17:06;;;;;;;6.00;5.00;;;20.40;58.10;;;;;;20885246;28;20098;-50
2021/09/04 06:27:08;;;;;;;6.82;5.30;;;20.30;58.00;;;;;;20818396;28;20057;-50
2021/09/04 06:37:10;;;;;;;9.52;5.25;;;20.40;57.00;;;;;;20817359;28;20490;-50
2021/09/04 06:47:12;;;;;;;5.65;5.00;;;20.40;56.90;;;;;;20884275;28;20519;-50
2021/09/04 06:57:19;;;;;;;10.25;5.63;;;20.70;56.30;;;;;;20907793;27;20053;-52
2021/09/04 07:07:22;;;;;;;8.57;5.50;;;20.90;56.00;;;;;;20834337;27;20069;-50
2021/09/04 07:17:25;;;;;;;11.60;6.67;;;21.10;55.40;;;;;;20865313;27;20060;-53
2021/09/04 07:27:26;;;;;;;10.55;6.55;;;21.50;54.60;;;;;;20875321;28;20056;-55
2021/09/04 07:37:28;;;;;;;7.60;5.80;;;21.70;53.60;;;;;;20864840;27;20053;-54
2021/09/04 07:47:31;;;;;;;10.43;5.73;;;21.90;53.20;;;;;;20896382;28;20045;-54
2021/09/04 07:57:32;;;;;;;9.98;7.57;;;22.10;52.70;;;;;;20875123;27;20049;-52
2021/09/04 08:07:35;;;;;;;7.00;5.77;;;22.50;51.80;;;;;;20872815;28;20065;-51
2021/09/04 08:17:36;;;;;;;9.27;7.67;;;22.90;50.40;;;;;;20889188;28;20092;-52
2021/09/04 08:27:40;;;;;;;12.25;7.15;;;23.40;49.20;;;;;;20878300;27;20048;-50
2021/09/04 08:37:42;;;;;;;10.25;7.38;;;24.40;48.10;;;;;;20902638;27;20550;-49
2021/09/04 08:47:47;;;;;;;14.07;6.82;;;25.10;46.30;;;;;;20932288;27;20362;-48
2021/09/04 08:57:49;;;;;;;11.73;8.38;;;25.60;46.30;;;;;;20882474;27;20044;-51
2021/09/04 09:07:52;;;;;;;10.43;8.55;;;26.00;44.70;;;;;;20902883;28;20222;-54
2021/09/04 09:18:09;;;;;;;13.77;7.28;;;25.80;45.10;;;;;;20902206;28;20501;-52
2021/09/04 09:28:18;;;;;;;12.23;8.20;;;25.60;45.80;;;;;;20901721;28;20049;-57
2021/09/04 09:38:25;;;;;;;10.10;6.50;;;25.70;45.80;;;;;;20883815;28;20052;-52
2021/09/04 09:48:32;;;;;;;9.18;7.20;;;25.70;45.70;;;;;;20901100;28;20049;-58
2021/09/04 09:58:36;;;;;;;11.73;6.38;;;25.90;45.00;;;;;;20884216;28;20105;-58
2021/09/04 10:08:39;;;;;;;10.20;6.65;;;26.20;44.50;;;;;;20883976;28;20105;-57
2021/09/04 10:18:41;;;;;;;10.68;7.38;;;26.20;44.30;;;;;;20912098;28;20132;-52
2021/09/04 10:29:04;;;;;;;13.45;7.90;;;26.30;44.00;;;;;;20899147;28;20095;-51
2021/09/04 10:39:09;;;;;;;9.45;6.65;;;26.60;43.80;;;;;;20898296;28;20046;-57
2021/09/04 10:49:10;;;;;;;9.63;7.82;;;26.90;43.40;;;;;;20902596;28;20048;-54
2021/09/04 10:59:12;;;;;;;11.98;7.47;;;27.10;41.20;;;;;;20911260;28;20109;-52
2021/09/04 11:09:16;;;;;;;8.80;7.13;;;27.40;40.60;;;;;;20910551;28;20516;-52
2021/09/04 11:19:21;;;;;;;7.15;5.45;;;27.60;40.10;;;;;;20892316;28;20049;-54
2021/09/04 11:29:23;;;;;;;8.23;5.50;;;27.70;39.30;;;;;;20909703;28;20053;-53
2021/09/04 11:39:36;;;;;;;7.47;4.50;;;28.10;36.70;;;;;;20908623;28;20049;-56
2021/09/04 11:49:43;;;;;;;6.00;4.68;;;28.20;36.60;;;;;;20891089;27;20049;-55
2021/09/04 12:00:15;;;;;;;4.38;3.30;;;29.60;34.40;;;;;;20834757;27;20490;-55
2021/09/04 12:10:23;;;;;;;8.45;4.78;;;29.70;32.10;;;;;;20823004;28;20050;-57
2021/09/04 12:20:37;;;;;;;4.22;3.63;;;29.10;33.40;;;;;;20823344;28;20098;-53
2021/09/04 12:31:11;;;;;;;5.22;4.57;;;29.10;32.90;;;;;;20805033;28;20060;-53
2021/09/04 12:41:17;;;;;;;4.25;2.80;;;29.70;31.80;;;;;;20822655;28;20063;-66
2021/09/04 12:51:19;;;;;;;3.97;3.22;;;29.60;30.90;;;;;;20821880;28;20049;-56
2021/09/04 13:01:21;;;;;;;3.80;2.60;;;30.40;28.30;;;;;;20804417;28;20049;-56
2021/09/04 13:11:23;;;;;;;3.55;3.00;;;30.50;27.10;;;;;;20819736;28;20072;-53
2021/09/04 13:21:25;;;;;;;4.05;3.28;;;30.10;28.90;;;;;;20802909;28;20110;-65
2021/09/04 13:31:26;;;;;;;4.95;2.95;;;30.20;29.20;;;;;;20819423;28;20084;-53
2021/09/04 13:41:29;;;;;;;4.63;2.65;;;30.40;27.70;;;;;;20818930;28;20054;-62
2021/09/04 13:51:31;;;;;;;4.82;3.33;;;30.50;27.90;;;;;;20800751;28;20069;-58
2021/09/04 14:01:33;;;;;;;5.28;3.60;;;30.40;28.30;;;;;;20817619;28;20057;-58
2021/09/04 14:11:35;;;;;;;3.85;3.25;;;30.40;28.40;;;;;;20817633;28;20049;-55
2021/09/04 14:21:37;;;;;;;7.57;3.90;;;30.70;28.40;;;;;;20820239;28;20057;-61
2021/09/04 14:31:38;;;;;;;4.05;3.13;;;30.50;29.10;;;;;;20831266;28;20482;-54
2021/09/04 14:41:40;;;;;;;5.50;3.70;;;30.70;29.40;;;;;;20813317;28;20080;-58
2021/09/04 14:51:43;;;;;;;3.90;2.58;;;30.30;28.60;;;;;;20829797;28;20057;-54
2021/09/04 15:01:44;;;;;;;3.80;2.78;;;30.50;27.10;;;;;;20829613;28;20056;-55
2021/09/04 15:11:46;;;;;;;3.78;2.50;;;30.40;27.00;;;;;;20828092;28;20045;-59
2021/09/04 15:21:49;;;;;;;4.05;2.50;;;31.10;26.10;;;;;;20828814;28;20144;-54
2021/09/04 15:31:52;;;;;;;4.55;2.50;;;31.10;25.80;;;;;;20827228;28;20140;-54
2021/09/04 15:41:54;;;;;;;3.88;2.97;;;30.60;25.60;;;;;;20826272;28;20081;-54
2021/09/04 15:51:56;;;;;;;5.00;4.25;;;30.60;25.80;;;;;;20825915;28;20478;-62
2021/09/04 16:01:58;;;;;;;7.57;6.85;;;30.40;27.40;;;;;;20825006;28;20122;-54
2021/09/04 16:12:00;;;;;;;4.32;3.00;;;30.30;26.80;;;;;;20824580;28;20152;-55
2021/09/04 16:22:01;;;;;;;4.85;3.65;;;30.20;27.80;;;;;;20823747;28;20045;-53
2021/09/04 16:32:03;;;;;;;6.00;3.20;;;30.10;28.40;;;;;;20823669;28;20450;-53
2021/09/04 16:42:05;;;;;;;5.32;3.45;;;30.00;28.30;;;;;;20822545;28;20049;-59
2021/09/04 16:52:07;;;;;;;5.35;3.75;;;29.90;28.90;;;;;;20821847;28;20053;-54
2021/09/04 17:02:08;;;;;;;3.58;3.13;;;30.00;29.40;;;;;;20804280;28;20053;-53
2021/09/04 17:12:10;;;;;;;3.90;3.20;;;29.90;28.60;;;;;;20820677;28;20053;-54
2021/09/04 17:22:12;;;;;;;15.07;11.85;;;29.90;29.20;;;;;;20819327;28;20053;-53
2021/09/04 17:32:14;;;;;;;5.57;4.82;;;29.80;30.20;;;;;;20819177;28;20057;-53
2021/09/04 17:42:17;;;;;;;10.93;9.73;;;29.70;29.50;;;;;;20819384;28;20386;-53
2021/09/04 17:52:18;;;;;;;4.40;3.80;;;29.60;30.10;;;;;;20817843;28;20053;-54
2021/09/04 18:02:22;;;;;;;5.47;3.92;;;29.40;30.20;;;;;;20799888;28;20107;-52
2021/09/04 18:12:24;;;;;;;6.10;4.38;;;29.20;31.20;;;;;;20817150;28;20103;-54
2021/09/04 18:22:26;;;;;;;6.93;3.90;;;29.00;30.90;;;;;;20816723;28;20378;-53
2021/09/04 18:32:28;;;;;;;7.93;5.03;;;28.80;31.20;;;;;;20815987;28;20132;-54
2021/09/04 18:42:29;;;;;;;6.70;4.90;;;28.60;31.80;;;;;;20816044;28;20458;-54
2021/09/04 18:52:31;;;;;;;4.97;4.47;;;28.60;32.10;;;;;;20797853;28;20046;-53
2021/09/04 19:02:34;;;;;;;8.20;6.03;;;28.20;33.40;;;;;;20814513;28;20065;-55
2021/09/04 19:12:39;;;;;;;7.75;5.47;;;28.00;33.60;;;;;;20823470;28;20110;-55
2021/09/04 19:22:41;;;;;;;9.48;7.20;;;27.80;34.70;;;;;;20827203;28;20045;-53
2021/09/04 19:32:42;;;;;;;13.90;8.63;;;27.60;35.20;;;;;;20826418;28;20305;-59
2021/09/04 19:42:44;;;;;;;8.30;6.68;;;27.50;35.60;;;;;;20826175;28;20045;-52
2021/09/04 19:52:46;;;;;;;11.95;8.55;;;27.30;36.50;;;;;;20826309;28;20049;-53
2021/09/04 20:02:47;;;;;;;13.57;9.98;;;27.40;35.90;;;;;;20824686;28;20071;-54
2021/09/04 20:12:49;;;;;;;12.25;10.68;;;27.50;36.60;;;;;;20824638;28;20081;-53
2021/09/04 20:22:51;;;;;;;14.95;10.68;;;27.20;37.00;;;;;;20824451;28;20081;-62
2021/09/04 20:32:53;;;;;;;12.77;9.50;;;27.00;38.30;;;;;;20824713;28;20046;-53
2021/09/04 20:42:55;;;;;;;15.40;13.07;;;26.70;38.60;;;;;;20823062;28;20049;-55
2021/09/04 20:52:58;;;;;;;19.88;11.55;;;26.90;38.90;;;;;;20823142;28;20413;-65
2021/09/04 21:02:59;;;;;;;22.20;13.68;;;27.10;38.60;;;;;;20822697;28;20056;-64
2021/09/04 21:13:02;;;;;;;22.90;15.85;;;26.40;40.10;;;;;;20803743;28;20060;-66
2021/09/04 21:23:03;;;;;;;26.35;18.48;;;26.40;41.00;;;;;;20819927;28;20140;-58
2021/09/04 21:33:05;;;;;;;13.68;10.15;;;26.80;40.50;;;;;;20819200;28;20077;-59
2021/09/04 21:43:07;;;;;;;;;;;26.70;40.40;;;;;;20819577;28;20477;-58
2021/09/04 21:53:09;;;;;;;10.53;6.33;;;26.40;40.30;;;;;;20818683;28;20362;-64
2021/09/04 22:03:11;;;;;;;8.95;5.80;;;26.30;39.70;;;;;;20817403;28;20459;-66
2021/09/04 22:13:13;;;;;;;;;;;;;;;;;;20817789;28;20486;-56
2021/09/04 22:23:15;;;;;;;6.68;4.78;;;26.00;40.20;;;;;;20817170;28;19932;-54
2021/09/04 22:33:17;;;;;;;6.72;5.43;;;24.70;42.60;;;;;;20816848;28;20064;-60
2021/09/04 22:43:21;;;;;;;6.82;5.13;;;24.60;42.80;;;;;;20820201;28;20046;-55
2021/09/04 22:53:23;;;;;;;6.90;5.30;;;24.50;42.50;;;;;;20830272;28;20049;-56
2021/09/04 23:03:25;;;;;;;5.00;4.50;;;24.20;42.80;;;;;;20829755;28;20049;-56
2021/09/04 23:13:28;;;;;;;7.13;4.95;;;24.10;43.40;;;;;;20829054;28;20058;-55
2021/09/04 23:23:30;;;;;;;;;;;23.80;43.60;;;;;;20828365;28;20145;-55
2021/09/04 23:33:33;;;;;;;7.00;5.30;;;23.60;44.00;;;;;;20828185;28;19925;-54
2021/09/04 23:43:35;;;;;;;;;;;23.60;44.10;;;;;;20843168;28;20080;-58
2021/09/04 23:53:38;;;;;;;7.68;5.28;;;23.40;44.40;;;;;;20831024;28;19925;-55
